• Join FlightAware (Why Join?)
  • Login
  • US Flag 
03:16PM EDT


 

Airport Tracker/Info


-or-


 

Live Flight TrackerFlight Track Log ✈ RPA3392 ✈ 20-May-2013 ✈ KDCA - KALB

Flight Track Log - Related Links

Times and Time Zones

All times are in EDT time to prevent confusion due to time zone crossing. See the RPA3392 flight status page for this flight to view local times or setup timezone preferences in your user account.

Time Position Orientation Groundspeed Altitude Reporting Facility
EDT Latitude Longitude Course Direction KTS MPH feet Rate Location/Type
11:15PM 38.7833 -77.0333 83° East 216 249 2,700  Level Potomac TRACON
11:17PM 38.9716 -76.6735 57° Northeast  Level FlightAware Approximate
11:17PM 38.7167 -76.9833 150° Southeast 282 325 5,400  Level Potomac TRACON
11:17PM 38.7667 -76.9167 46° Northeast 297 342 8,200 3,120 Climbing Potomac TRACON
11:18PM 39.0206 -76.5549 67° East  Level FlightAware Approximate
11:18PM 38.8500 -76.9000 North 294 338 11,400  Level Potomac TRACON
11:19PM 39.0665 -76.4338 63° Northeast  Level FlightAware Approximate
11:20PM 39.1167 -76.3155 90° East  Level FlightAware Approximate
11:20PM 38.9511 -76.7981 38° Northeast 289 333 15,700  Level Washington Center
11:21PM 39.1519 -76.1975 83° East  Level FlightAware Approximate
11:21PM 38.9939 -76.6758 66° East 324 373 16,900  Level Washington Center
11:22PM 39.0367 -76.5508 66° East 350 403 19,000 1,920 Climbing Washington Center
11:23PM 39.0836 -76.4206 65° Northeast 378 435 20,800 1,740 Climbing Washington Center
11:24PM 39.1428 -76.2900 60° Northeast 403 464 22,500 1,080 Climbing Washington Center
11:25PM 39.2164 -76.1703 52° Northeast 416 479 23,000 240 Climbing Washington Center
11:26PM 39.3003 -76.0342 51° Northeast 438 504 23,000 180 Level Washington Center
11:27PM 39.3756 -75.9083 52° Northeast 443 510 23,400 900 Climbing Washington Center
11:28PM 39.4531 -75.7825 51° Northeast 443 510 24,900 780 Climbing Washington Center
11:29PM 39.5303 -75.6481 53° Northeast 448 516 25,000  Climbing Washington Center
11:30PM 39.6072 -75.5189 52° Northeast 453 521 25,000 240 Level Washington Center
11:31PM 39.6906 -75.3947 49° Northeast 453 521 25,500 900 Climbing Washington Center
11:32PM 39.7881 -75.2756 43° Northeast 458 527 26,800 1,140 Climbing Washington Center
11:33PM 39.8836 -75.1589 43° Northeast 458 527 27,800 960 Climbing Washington Center
11:34PM 39.9300 -75.0939 47° Northeast 465 535 28,300 720 Climbing New York Center
11:35PM 40.0014 -74.9628 55° Northeast 459 528 28,900 300 Climbing New York Center
11:36PM 40.0694 -74.8097 60° Northeast 472 543 29,000  Climbing New York Center
11:37PM 40.1453 -74.6619 56° Northeast 477 549 29,000 -540 Level New York Center
11:38PM 40.2583 -74.5786 29° Northeast 458 527 28,000 -1,200 Descending New York Center
11:39PM 40.3847 -74.5394 13° North 445 512 26,700 -720 Descending New York Center
11:41PM 40.6150 -74.4658 14° North 470 541 26,000 -300 Descending Boston Center
11:42PM 40.7428 -74.4289 12° North 465 535 26,000  Level Boston Center
11:43PM 40.8683 -74.3942 12° North 460 529 26,000  Level Boston Center
11:44PM 40.9981 -74.3569 12° North 466 536 26,000  Level Boston Center
11:45PM 41.1258 -74.3194 12° North 471 542 26,000  Level Boston Center
11:46PM 41.2453 -74.2814 13° North 465 535 26,000  Level Boston Center
11:47PM 41.3669 -74.2436 13° North 449 517 26,000  Level Boston Center
11:48PM 41.5031 -74.1975 14° North 449 517 26,000 -1,020 Level Boston Center
11:49PM 41.6183 -74.1617 13° North 458 527 24,000 -2,700 Descending Boston Center
11:50PM 41.7356 -74.1258 13° North 446 513 20,700 -3,300 Descending Boston Center
11:51PM 41.8486 -74.0900 13° North 395 455 17,400 -2,880 Descending Boston Center
11:51PM 41.9114 -74.0722 12° North 376 433 16,100 -1,920 Descending Boston Center
11:52PM 41.9386 -74.0617 16° North 366 421 15,500 -2,040 Descending Boston Center
11:53PM 42.0475 -74.0225 15° North 355 409 13,300 -2,220 Descending Boston Center
11:54PM 42.1336 -73.9856 18° North 362 417 11,100 -1,320 Descending Boston Center
11:55PM 42.2342 -73.9431 17° North 356 410 10,800 -780 Descending Boston Center
11:56PM 42.3097 -73.9083 19° North 321 369 9,600 -1,500 Descending Boston Center
11:57PM 42.3933 -73.8711 18° North 291 335 7,800 -1,740 Descending Boston Center
11:58PM 42.4606 -73.8389 19° North 279 321 6,200 -1,860 Descending Boston Center
11:59PM 42.5444 -73.8039 17° North 273 314 3,900 -2,100 Descending Boston Center